createdAt,value
2023-02-27T00:00:14.981Z,92595.63
2023-02-27T00:02:44.372Z,92601.91
2023-02-27T00:05:11.706Z,92600.59
2023-02-27T00:07:38.528Z,92604.47
2023-02-27T00:10:06.429Z,92607.25
2023-02-27T00:12:37.814Z,92599.81
2023-02-27T00:15:08.379Z,92611.69
2023-02-27T00:17:35.150Z,92611.75
2023-02-27T00:20:01.601Z,92608.50
2023-02-27T00:22:28.116Z,92616.38
2023-02-27T00:24:54.661Z,92609.66
2023-02-27T00:27:21.135Z,92602.13
2023-02-27T00:29:47.590Z,92608.78
2023-02-27T00:32:14.398Z,92608.03
2023-02-27T00:34:40.861Z,92599.19
2023-02-27T00:37:07.895Z,92607.69
2023-02-27T00:39:34.395Z,92608.03
2023-02-27T00:42:00.831Z,92605.31
2023-02-27T00:44:27.234Z,92613.78
2023-02-27T00:46:53.753Z,92606.63
2023-02-27T00:49:20.688Z,92601.78
2023-02-27T00:51:47.524Z,92611.59
2023-02-27T00:54:13.921Z,92607.06
2023-02-27T00:56:41.059Z,92604.69
2023-02-27T00:59:07.455Z,92612.31
2023-02-27T01:01:33.882Z,92612.47
2023-02-27T01:04:01.185Z,92604.94
2023-02-27T01:06:27.908Z,92604.16
2023-02-27T01:08:55.930Z,92597.00
2023-02-27T01:11:24.844Z,92600.88
2023-02-27T01:13:51.737Z,92600.00
2023-02-27T01:16:18.230Z,92599.56
2023-02-27T01:18:44.825Z,92603.53
2023-02-27T01:21:11.353Z,92603.09
2023-02-27T01:23:37.768Z,92606.38
2023-02-27T01:26:04.359Z,92611.00
2023-02-27T01:28:30.845Z,92599.28
2023-02-27T01:30:57.270Z,92608.50
2023-02-27T01:33:23.812Z,92610.09
2023-02-27T01:35:50.276Z,92605.31
2023-02-27T01:38:16.790Z,92596.91
2023-02-27T01:40:43.591Z,92603.34
2023-02-27T01:43:15.940Z,92601.50
2023-02-27T01:45:44.321Z,92594.53
2023-02-27T01:48:19.730Z,92590.53
2023-02-27T01:51:03.105Z,92588.13
2023-02-27T01:53:32.626Z,92588.94
2023-02-27T01:56:04.994Z,92602.03
2023-02-27T01:58:31.984Z,92602.13
2023-02-27T02:00:58.762Z,92602.94
2023-02-27T02:03:48.622Z,92604.59
2023-02-27T02:06:15.645Z,92609.41
2023-02-27T02:08:44.960Z,92607.50
2023-02-27T02:11:13.346Z,92609.72
2023-02-27T02:13:40.920Z,92604.16
2023-02-27T02:16:19.970Z,92607.50
2023-02-27T02:18:56.769Z,92589.28
2023-02-27T02:21:54.771Z,92594.44
2023-02-27T02:24:45.505Z,92589.72
2023-02-27T02:27:30.421Z,92588.69
2023-02-27T02:30:25.719Z,92597.25
2023-02-27T02:33:17.997Z,92595.13
2023-02-27T02:36:19.248Z,92596.53
2023-02-27T02:39:03.226Z,92594.59
2023-02-27T02:41:52.864Z,92590.88
2023-02-27T02:44:33.226Z,92593.44
2023-02-27T02:47:15.178Z,92596.38
2023-02-27T02:49:41.511Z,92592.22
2023-02-27T02:52:27.560Z,92599.03
2023-02-27T02:55:11.293Z,92603.09
2023-02-27T02:57:43.733Z,92592.22
2023-02-27T03:00:16.611Z,92598.50
2023-02-27T03:02:50.634Z,92585.84
2023-02-27T03:05:32.850Z,92590.78
2023-02-27T03:08:06.234Z,92587.44
2023-02-27T03:10:42.387Z,92586.63
2023-02-27T03:13:18.002Z,92594.78
2023-02-27T03:15:54.454Z,92584.31
2023-02-27T03:18:28.565Z,92587.97
2023-02-27T03:20:59.595Z,92588.94
2023-02-27T03:23:35.144Z,92586.53
2023-02-27T03:26:04.746Z,92589.91
2023-02-27T03:28:35.778Z,92592.66
2023-02-27T03:31:13.974Z,92593.63
2023-02-27T03:33:49.675Z,92591.06
2023-02-27T03:36:41.529Z,92587.16
2023-02-27T03:39:19.621Z,92593.34
2023-02-27T03:42:07.532Z,92592.84
2023-02-27T03:45:07.905Z,92591.31
2023-02-27T03:47:35.624Z,92600.34
2023-02-27T03:50:02.333Z,92596.28
2023-02-27T03:52:30.016Z,92590.78
2023-02-27T03:55:01.671Z,92589.81
2023-02-27T03:57:29.136Z,92608.59
2023-02-27T03:59:55.748Z,92596.38
2023-02-27T04:02:22.772Z,92596.03
2023-02-27T04:04:49.465Z,92597.72
2023-02-27T04:07:57.191Z,92603.97
2023-02-27T04:10:44.584Z,92605.22
2023-02-27T04:13:29.793Z,92590.97
2023-02-27T04:16:36.309Z,92603.97
2023-02-27T04:19:35.797Z,92606.72
2023-02-27T04:22:10.094Z,92608.41
2023-02-27T04:24:58.620Z,92603.09
2023-02-27T04:27:43.835Z,92614.50
2023-02-27T04:30:35.618Z,92607.34
2023-02-27T04:33:14.229Z,92597.09
2023-02-27T04:35:51.460Z,92612.66
2023-02-27T04:39:08.064Z,92615.94
2023-02-27T04:41:45.433Z,92610.78
2023-02-27T04:44:13.949Z,92619.13
2023-02-27T04:46:43.433Z,92621.38
2023-02-27T04:49:44.190Z,92622.34
2023-02-27T04:52:34.274Z,92622.34
2023-02-27T04:55:15.388Z,92620.59
2023-02-27T04:57:50.392Z,92630.75
2023-02-27T05:00:20.568Z,92627.69
2023-02-27T05:02:53.302Z,92633.41
2023-02-27T05:05:26.603Z,92637.94
2023-02-27T05:08:00.572Z,92630.91
2023-02-27T05:10:40.679Z,92627.56
2023-02-27T05:13:14.869Z,92633.31
2023-02-27T05:16:07.758Z,92637.31
2023-02-27T05:18:34.600Z,92637.66
2023-02-27T05:21:14.972Z,92623.31
2023-02-27T05:23:58.467Z,92633.56
2023-02-27T05:26:55.112Z,92632.09
2023-02-27T05:29:36.227Z,92633.56
2023-02-27T05:32:18.813Z,92637.09
2023-02-27T05:35:12.648Z,92635.50
2023-02-27T05:37:48.021Z,92632.94
2023-02-27T05:40:20.004Z,92638.69
2023-02-27T05:43:08.659Z,92638.34
2023-02-27T05:45:38.755Z,92644.44
2023-02-27T05:48:14.398Z,92640.38
2023-02-27T05:50:43.071Z,92641.78
2023-02-27T05:53:13.277Z,92652.66
2023-02-27T05:55:45.846Z,92646.13
2023-02-27T05:58:22.666Z,92652.56
2023-02-27T06:00:57.158Z,92654.78
2023-02-27T06:03:24.066Z,92650.78
2023-02-27T06:05:53.599Z,92653.69
2023-02-27T06:08:21.669Z,92653.31
2023-02-27T06:10:49.875Z,92650.91
2023-02-27T06:13:17.255Z,92654.94
2023-02-27T06:15:44.848Z,92651.47
2023-02-27T06:18:12.683Z,92646.28
2023-02-27T06:20:39.677Z,92655.59
2023-02-27T06:23:06.670Z,92651.47
2023-02-27T06:25:33.800Z,92655.09
2023-02-27T06:28:00.500Z,92658.03
2023-02-27T06:30:27.264Z,92659.28
2023-02-27T06:32:53.945Z,92671.72
2023-02-27T06:35:21.739Z,92667.31
2023-02-27T06:37:48.219Z,92673.34
2023-02-27T06:40:15.794Z,92673.44
2023-02-27T06:42:43.792Z,92673.44
2023-02-27T06:45:12.644Z,92674.06
2023-02-27T06:47:40.413Z,92676.94
2023-02-27T06:50:08.649Z,92678.81
2023-02-27T06:52:35.227Z,92684.56
2023-02-27T06:55:01.627Z,92678.03
2023-02-27T06:57:28.040Z,92685.38
2023-02-27T06:59:54.431Z,92698.34
2023-02-27T07:02:21.032Z,92694.19
2023-02-27T07:04:47.460Z,92707.16
2023-02-27T07:07:33.799Z,92707.94
2023-02-27T07:10:01.112Z,92701.03
2023-02-27T07:12:27.520Z,92706.91
2023-02-27T07:14:53.929Z,92704.34
2023-02-27T07:17:20.331Z,92699.66
2023-02-27T07:19:46.725Z,92704.34
2023-02-27T07:22:13.124Z,92711.06
2023-02-27T07:24:39.653Z,92712.63
2023-02-27T07:27:06.057Z,92719.63
2023-02-27T07:29:32.533Z,92714.75
2023-02-27T07:31:59.043Z,92725.44
2023-02-27T07:34:25.507Z,92712.38
2023-02-27T07:36:51.939Z,92726.22
2023-02-27T07:39:19.328Z,92729.66
2023-02-27T07:41:45.758Z,92721.53
2023-02-27T07:44:16.951Z,92732.88
2023-02-27T07:46:44.631Z,92732.00
2023-02-27T07:49:11.188Z,92724.34
2023-02-27T07:51:37.613Z,92732.22
2023-02-27T07:54:04.146Z,92732.84
2023-02-27T07:56:30.873Z,92720.28
2023-02-27T07:58:57.393Z,92729.31
2023-02-27T08:01:23.815Z,92730.31
2023-02-27T08:03:50.269Z,92734.03
2023-02-27T08:06:16.898Z,92737.16
2023-02-27T08:08:43.375Z,92744.41
2023-02-27T08:11:10.123Z,92739.38
2023-02-27T08:16:23.004Z,92749.13
2023-02-27T08:18:49.468Z,92751.06
2023-02-27T08:21:15.929Z,92741.06
2023-02-27T08:23:42.719Z,92749.63
2023-02-27T08:26:09.373Z,92759.19
2023-02-27T08:28:35.756Z,92760.78
2023-02-27T08:31:02.193Z,92752.47
2023-02-27T08:33:29.071Z,92756.50
2023-02-27T08:35:55.760Z,92757.94
2023-02-27T08:38:22.198Z,92748.06
2023-02-27T08:40:50.960Z,92753.63
2023-02-27T08:43:17.384Z,92762.09
2023-02-27T08:45:43.791Z,92762.00
2023-02-27T08:48:14.154Z,92766.88
2023-02-27T08:50:40.571Z,92773.28
2023-02-27T08:53:07.024Z,92755.84
2023-02-27T08:55:33.428Z,92768.50
2023-02-27T08:57:59.930Z,92768.22
2023-02-27T09:00:26.839Z,92767.25
2023-02-27T09:02:54.013Z,92752.41
2023-02-27T09:05:22.816Z,92760.59
2023-02-27T09:07:49.246Z,92762.03
2023-02-27T09:10:15.663Z,92769.66
2023-02-27T09:12:42.882Z,92769.66
2023-02-27T09:15:11.170Z,92774.13
2023-02-27T09:17:38.272Z,92762.94
2023-02-27T09:20:09.080Z,92767.69
2023-02-27T09:22:35.545Z,92761.47
2023-02-27T09:25:01.966Z,92766.28
2023-02-27T09:27:28.475Z,92773.88
2023-02-27T09:29:56.292Z,92767.50
2023-02-27T09:32:23.467Z,92778.16
2023-02-27T09:34:50.457Z,92782.22
2023-02-27T09:37:19.098Z,92790.06
2023-02-27T09:39:46.395Z,92776.13
2023-02-27T09:42:23.066Z,92783.53
2023-02-27T09:44:53.726Z,92779.59
2023-02-27T09:47:29.014Z,92794.75
2023-02-27T09:49:58.005Z,92798.53
2023-02-27T09:52:24.757Z,92797.53
2023-02-27T09:54:51.371Z,92787.38
2023-02-27T09:57:40.042Z,92799.22
2023-02-27T10:00:39.797Z,92799.50
2023-02-27T10:03:21.692Z,92805.88
2023-02-27T10:06:11.002Z,92813.66
2023-02-27T10:09:02.365Z,92800.69
2023-02-27T10:11:53.828Z,92811.13
2023-02-27T10:14:35.990Z,92817.84
2023-02-27T10:17:05.915Z,92812.34
2023-02-27T10:19:37.020Z,92815.72
2023-02-27T10:22:07.889Z,92824.25
2023-02-27T10:24:42.595Z,92823.25
2023-02-27T10:27:16.299Z,92825.97
2023-02-27T10:29:43.129Z,92824.88
2023-02-27T10:32:26.968Z,92825.28
2023-02-27T10:35:27.170Z,92813.59
2023-02-27T10:37:59.533Z,92827.91
2023-02-27T10:40:27.112Z,92826.75
2023-02-27T10:42:56.358Z,92831.50
2023-02-27T10:45:22.901Z,92828.56
2023-02-27T10:47:49.319Z,92835.09
2023-02-27T10:50:31.894Z,92825.16
2023-02-27T10:53:01.722Z,92818.78
2023-02-27T10:55:36.591Z,92831.88
2023-02-27T10:58:04.512Z,92830.03
2023-02-27T11:00:45.101Z,92836.94
2023-02-27T11:03:24.605Z,92837.63
2023-02-27T11:06:13.822Z,92841.84
2023-02-27T11:08:40.443Z,92837.06
2023-02-27T11:11:09.716Z,92842.13
2023-02-27T11:13:39.008Z,92848.31
2023-02-27T11:16:05.838Z,92838.38
2023-02-27T11:18:33.861Z,92847.31
2023-02-27T11:21:13.912Z,92836.38
2023-02-27T11:23:52.348Z,92847.13
2023-02-27T11:26:40.125Z,92837.16
2023-02-27T11:29:11.534Z,92845.91
2023-02-27T11:31:39.339Z,92845.94
2023-02-27T11:34:08.137Z,92836.94
2023-02-27T11:36:47.169Z,92842.69
2023-02-27T11:39:47.818Z,92847.69
2023-02-27T11:42:18.510Z,92843.75
2023-02-27T11:44:55.216Z,92836.00
2023-02-27T11:47:27.213Z,92848.09
2023-02-27T11:50:02.651Z,92845.09
2023-02-27T11:52:44.250Z,92860.00
2023-02-27T11:55:17.762Z,92853.03
2023-02-27T11:57:47.241Z,92857.59
2023-02-27T12:00:29.535Z,92853.63
2023-02-27T12:03:05.133Z,92854.84
2023-02-27T12:05:54.347Z,92852.25
2023-02-27T12:08:35.996Z,92856.47
2023-02-27T12:11:25.106Z,92852.09
2023-02-27T12:13:58.585Z,92862.63
2023-02-27T12:16:36.499Z,92857.25
2023-02-27T12:19:18.313Z,92861.81
2023-02-27T12:21:49.883Z,92856.69
2023-02-27T12:24:31.338Z,92852.28
2023-02-27T12:27:19.095Z,92859.63
2023-02-27T12:29:52.486Z,92861.41
2023-02-27T12:32:43.355Z,92855.03
2023-02-27T12:35:15.940Z,92863.22
2023-02-27T12:37:42.404Z,92849.50
2023-02-27T12:40:15.391Z,92849.91
2023-02-27T12:42:57.100Z,92850.31
2023-02-27T12:45:31.419Z,92852.69
2023-02-27T12:48:01.567Z,92847.31
2023-02-27T12:50:43.685Z,92853.09
2023-02-27T12:53:32.018Z,92841.56
2023-02-27T12:56:06.522Z,92855.88
2023-02-27T12:58:40.298Z,92857.66
2023-02-27T13:01:23.223Z,92859.84
2023-02-27T13:04:14.102Z,92853.66
2023-02-27T13:07:09.350Z,92860.03
2023-02-27T13:09:50.361Z,92858.06
2023-02-27T13:12:33.402Z,92861.63
2023-02-27T13:15:05.405Z,92856.03
2023-02-27T13:17:43.073Z,92860.22
2023-02-27T13:20:21.593Z,92855.84
2023-02-27T13:23:30.548Z,92854.63
2023-02-27T13:26:00.415Z,92850.47
2023-02-27T13:28:29.197Z,92853.50
2023-02-27T13:31:20.185Z,92854.06
2023-02-27T13:33:57.135Z,92856.81
2023-02-27T13:36:33.225Z,92846.47
2023-02-27T13:38:59.654Z,92845.63
2023-02-27T13:41:29.260Z,92851.41
2023-02-27T13:44:20.435Z,92854.63
2023-02-27T13:46:47.402Z,92858.22
2023-02-27T13:49:28.802Z,92857.00
2023-02-27T13:52:00.347Z,92863.13
2023-02-27T13:54:31.033Z,92866.53
2023-02-27T13:57:03.437Z,92864.72
2023-02-27T13:59:41.819Z,92861.97
2023-02-27T14:02:11.508Z,92862.75
2023-02-27T14:04:51.290Z,92855.84
2023-02-27T14:07:21.447Z,92866.19
2023-02-27T14:09:51.818Z,92855.41
2023-02-27T14:12:42.595Z,92858.22
2023-02-27T14:15:38.814Z,92868.59
2023-02-27T14:18:43.888Z,92859.63
2023-02-27T14:21:10.413Z,92857.06
2023-02-27T14:23:37.165Z,92856.44
2023-02-27T14:26:17.137Z,92852.88
2023-02-27T14:28:52.755Z,92858.84
2023-02-27T14:31:32.291Z,92868.97
2023-02-27T14:34:05.259Z,92866.09
2023-02-27T14:36:42.490Z,92874.19
2023-02-27T14:39:20.151Z,92866.88
2023-02-27T14:42:01.428Z,92881.94
2023-02-27T14:44:36.316Z,92866.38
2023-02-27T14:47:03.912Z,92874.03
2023-02-27T14:49:35.894Z,92874.84
2023-02-27T14:52:21.868Z,92867.22
2023-02-27T14:54:52.409Z,92872.16
2023-02-27T14:57:28.870Z,92870.84
2023-02-27T14:59:55.344Z,92876.41
2023-02-27T15:02:30.565Z,92879.78
2023-02-27T15:05:03.351Z,92874.63
2023-02-27T15:07:33.012Z,92877.97
2023-02-27T15:10:06.022Z,92873.22
2023-02-27T15:12:38.043Z,92880.84
2023-02-27T15:15:07.716Z,92882.44
2023-02-27T15:17:38.700Z,92883.66
2023-02-27T15:20:29.251Z,92879.25
2023-02-27T15:23:01.428Z,92892.31
2023-02-27T15:25:39.212Z,92867.69
2023-02-27T15:28:17.288Z,92885.91
2023-02-27T15:30:48.440Z,92882.31
2023-02-27T15:33:16.423Z,92890.50
2023-02-27T15:35:45.169Z,92883.09
2023-02-27T15:38:28.597Z,92884.47
2023-02-27T15:40:57.146Z,92882.63
2023-02-27T15:43:26.147Z,92880.56
2023-02-27T15:45:53.484Z,92882.72
2023-02-27T15:48:20.892Z,92890.94
2023-02-27T15:50:52.094Z,92894.88
2023-02-27T15:53:21.183Z,92890.97
2023-02-27T15:55:53.676Z,92900.47
2023-02-27T15:58:31.808Z,92900.78
2023-02-27T16:01:02.154Z,92901.38
2023-02-27T16:03:34.101Z,92898.63
2023-02-27T16:06:01.127Z,92898.97
2023-02-27T16:08:30.503Z,92908.13
2023-02-27T16:10:57.919Z,92905.78
2023-02-27T16:13:38.608Z,92911.44
2023-02-27T16:16:32.611Z,92912.88
2023-02-27T16:19:02.610Z,92912.25
2023-02-27T16:21:33.574Z,92921.22
2023-02-27T16:24:29.434Z,92915.59
2023-02-27T16:26:55.864Z,92917.97
2023-02-27T16:29:28.432Z,92923.03
2023-02-27T16:31:56.523Z,92922.91
2023-02-27T16:34:44.535Z,92925.84
2023-02-27T16:37:21.138Z,92929.97
2023-02-27T16:39:52.223Z,92937.34
2023-02-27T16:42:18.764Z,92928.94
2023-02-27T16:44:45.202Z,92937.66
2023-02-27T16:47:12.571Z,92939.00
2023-02-27T16:49:40.341Z,92934.53
2023-02-27T16:52:10.338Z,92944.28
2023-02-27T16:54:42.028Z,92948.03
2023-02-27T16:57:09.574Z,92949.78
2023-02-27T16:59:40.921Z,92950.78
2023-02-27T17:02:13.085Z,92952.31
2023-02-27T17:04:39.662Z,92956.91
2023-02-27T17:07:06.934Z,92950.91
2023-02-27T17:09:33.528Z,92958.13
2023-02-27T17:11:59.965Z,92964.25
2023-02-27T17:14:26.499Z,92963.91
2023-02-27T17:16:53.095Z,92974.56
2023-02-27T17:19:21.326Z,92967.44
2023-02-27T17:21:48.163Z,92973.59
2023-02-27T17:24:14.591Z,92984.50
2023-02-27T17:26:41.008Z,92984.78
2023-02-27T17:29:09.518Z,92992.97
2023-02-27T17:31:37.180Z,92992.81
2023-02-27T17:34:05.047Z,92987.19
2023-02-27T17:36:31.589Z,93001.44
2023-02-27T17:39:00.624Z,92995.91
2023-02-27T17:41:27.706Z,93003.38
2023-02-27T17:43:56.072Z,93004.63
2023-02-27T17:46:25.029Z,93006.63
2023-02-27T17:48:51.743Z,93011.75
2023-02-27T17:51:18.913Z,93019.19
2023-02-27T17:53:45.487Z,93017.59
2023-02-27T17:56:13.040Z,93026.56
2023-02-27T17:58:40.516Z,93032.97
2023-02-27T18:01:09.341Z,93028.78
2023-02-27T18:03:35.870Z,93029.63
2023-02-27T18:06:02.870Z,93019.75
2023-02-27T18:08:29.717Z,93035.19
2023-02-27T18:10:56.150Z,93028.72
2023-02-27T18:13:23.593Z,93033.69
2023-02-27T18:15:50.198Z,93032.25
2023-02-27T18:18:16.764Z,93034.75
2023-02-27T18:20:43.692Z,93040.53
2023-02-27T18:23:10.395Z,93042.47
2023-02-27T18:25:36.955Z,93047.09
2023-02-27T18:28:04.405Z,93041.66
2023-02-27T18:30:33.473Z,93045.41
2023-02-27T18:32:59.998Z,93043.47
2023-02-27T18:35:27.021Z,93042.47
2023-02-27T18:37:53.470Z,93036.72
2023-02-27T18:40:24.382Z,93041.03
2023-02-27T18:42:52.400Z,93042.50
2023-02-27T18:45:19.890Z,93043.91
2023-02-27T18:47:46.727Z,93041.25
2023-02-27T18:50:13.284Z,93042.75
2023-02-27T18:52:39.886Z,93046.47
2023-02-27T18:55:06.641Z,93039.97
2023-02-27T18:57:33.048Z,93043.19
2023-02-27T18:59:59.458Z,93045.13
2023-02-27T19:02:25.967Z,93045.22
2023-02-27T19:04:52.511Z,93030.94
2023-02-27T19:07:20.503Z,93036.25
2023-02-27T19:09:46.998Z,93035.56
2023-02-27T19:12:13.531Z,93042.41
2023-02-27T19:14:40.385Z,93046.75
2023-02-27T19:17:06.964Z,93044.78
2023-02-27T19:19:33.366Z,93041.59
2023-02-27T19:21:59.801Z,93030.41
2023-02-27T19:24:26.223Z,93038.00
2023-02-27T19:26:53.560Z,93047.72
2023-02-27T19:29:20.218Z,93049.38
2023-02-27T19:31:46.791Z,93047.16
2023-02-27T19:34:14.749Z,93035.88
2023-02-27T19:36:41.530Z,93033.94
2023-02-27T19:39:08.039Z,93040.97
2023-02-27T19:41:34.469Z,93040.16
2023-02-27T19:44:01.024Z,93040.59
2023-02-27T19:46:31.065Z,93036.19
2023-02-27T19:48:59.899Z,93029.59
2023-02-27T19:51:26.920Z,93044.69
2023-02-27T19:53:53.960Z,93036.41
2023-02-27T19:56:22.994Z,93035.97
2023-02-27T19:58:49.961Z,93042.88
2023-02-27T20:01:36.096Z,93043.00
2023-02-27T20:04:03.188Z,93046.81
2023-02-27T20:06:32.151Z,93037.41
2023-02-27T20:08:59.324Z,93034.75
2023-02-27T20:11:30.729Z,93042.72
2023-02-27T20:13:57.407Z,93039.09
2023-02-27T20:16:26.397Z,93037.47
2023-02-27T20:18:53.737Z,93044.31
2023-02-27T20:21:24.464Z,93037.94
2023-02-27T20:23:53.839Z,93034.28
2023-02-27T20:26:29.761Z,93037.66
2023-02-27T20:29:00.274Z,93032.78
2023-02-27T20:31:30.464Z,93035.63
2023-02-27T20:33:57.759Z,93033.88
2023-02-27T20:36:24.261Z,93036.25
2023-02-27T20:38:50.717Z,93033.25
2023-02-27T20:41:20.200Z,93025.47
2023-02-27T20:43:47.379Z,93023.72
2023-02-27T20:46:20.078Z,93016.69
2023-02-27T20:48:47.352Z,93017.59
2023-02-27T20:51:17.890Z,93008.09
2023-02-27T20:53:46.993Z,93009.22
2023-02-27T20:56:14.189Z,93009.56
2023-02-27T20:58:41.026Z,93008.41
2023-02-27T21:01:12.315Z,93007.09
2023-02-27T21:03:41.054Z,93006.81
2023-02-27T21:06:09.844Z,93008.06
2023-02-27T21:08:38.174Z,93014.44
2023-02-27T21:11:09.831Z,93001.59
2023-02-27T21:13:36.992Z,93002.31
2023-02-27T21:16:06.288Z,93003.31
2023-02-27T21:18:33.175Z,92999.09
2023-02-27T21:21:09.447Z,92998.53
2023-02-27T21:23:41.156Z,93004.50
2023-02-27T21:26:21.736Z,92994.81
2023-02-27T21:28:57.420Z,92991.78
2023-02-27T21:31:26.595Z,92996.94
2023-02-27T21:33:54.408Z,93000.72
2023-02-27T21:36:29.035Z,93001.84
2023-02-27T21:38:57.932Z,92991.56
2023-02-27T21:41:24.609Z,92996.28
2023-02-27T21:43:51.112Z,92993.59
2023-02-27T21:46:17.618Z,92998.09
2023-02-27T21:48:44.011Z,92995.22
2023-02-27T21:51:10.648Z,92999.75
2023-02-27T21:53:37.173Z,92992.38
2023-02-27T21:56:05.910Z,92995.53
2023-02-27T21:58:32.940Z,92990.66
2023-02-27T22:00:59.588Z,92990.25
2023-02-27T22:03:34.201Z,92985.75
2023-02-27T22:06:01.896Z,92986.56
2023-02-27T22:08:28.950Z,92975.81
2023-02-27T22:10:59.091Z,92981.75
2023-02-27T22:13:26.295Z,92986.31
2023-02-27T22:15:53.685Z,92992.22
2023-02-27T22:18:20.715Z,92980.84
2023-02-27T22:20:47.336Z,92982.22
2023-02-27T22:23:13.978Z,92979.28
2023-02-27T22:25:41.254Z,92986.66
2023-02-27T22:28:08.108Z,92972.41
2023-02-27T22:30:34.636Z,92980.00
2023-02-27T22:33:01.138Z,92979.88
2023-02-27T22:35:27.820Z,92981.97
2023-02-27T22:37:54.495Z,92976.50
2023-02-27T22:40:21.081Z,92980.06
2023-02-27T22:42:50.739Z,92978.78
2023-02-27T22:45:17.177Z,92982.50
2023-02-27T22:47:43.713Z,92975.56
2023-02-27T22:50:10.912Z,92977.78
2023-02-27T22:52:37.514Z,92974.56
2023-02-27T22:55:04.310Z,92977.28
2023-02-27T22:57:30.884Z,92973.75
2023-02-27T22:59:57.420Z,92966.53
2023-02-27T23:02:24.026Z,92968.59
2023-02-27T23:04:50.666Z,92979.13
2023-02-27T23:07:17.330Z,92966.91
2023-02-27T23:09:43.927Z,92972.53
2023-02-27T23:12:10.653Z,92980.50
2023-02-27T23:14:37.205Z,92976.38
2023-02-27T23:17:03.954Z,92973.50
2023-02-27T23:19:30.626Z,92974.13
2023-02-27T23:21:57.164Z,92963.50
2023-02-27T23:24:23.688Z,92958.34
2023-02-27T23:26:51.758Z,92963.00
2023-02-27T23:29:18.990Z,92962.53
2023-02-27T23:31:45.703Z,92963.84
2023-02-27T23:34:12.228Z,92955.31
2023-02-27T23:36:39.384Z,92956.66
2023-02-27T23:39:06.718Z,92956.47
2023-02-27T23:41:33.620Z,92960.97
2023-02-27T23:44:01.450Z,92961.16
2023-02-27T23:46:30.320Z,92954.69
2023-02-27T23:49:01.217Z,92957.91
2023-02-27T23:51:30.492Z,92947.19
2023-02-27T23:53:57.717Z,92947.97
2023-02-27T23:56:27.951Z,92957.78
2023-02-27T23:59:03.036Z,92948.19
